sensor_id;sensor_type;location;lat;lon;timestamp;temperature;humidity
17879;DHT22;9065;51.050;13.758;2023-03-23T00:00:54;13.50;99.90
17879;DHT22;9065;51.050;13.758;2023-03-23T00:03:21;13.50;99.90
17879;DHT22;9065;51.050;13.758;2023-03-23T00:05:51;13.60;99.90
17879;DHT22;9065;51.050;13.758;2023-03-23T00:08:18;13.60;99.90
17879;DHT22;9065;51.050;13.758;2023-03-23T00:10:48;13.70;99.90
17879;DHT22;9065;51.050;13.758;2023-03-23T00:13:18;13.80;99.90
17879;DHT22;9065;51.050;13.758;2023-03-23T00:15:46;13.80;99.90
17879;DHT22;9065;51.050;13.758;2023-03-23T00:18:15;13.90;99.90
17879;DHT22;9065;51.050;13.758;2023-03-23T00:20:48;13.90;99.90
17879;DHT22;9065;51.050;13.758;2023-03-23T00:23:15;13.90;99.90
17879;DHT22;9065;51.050;13.758;2023-03-23T00:25:47;14.10;99.90
17879;DHT22;9065;51.050;13.758;2023-03-23T00:28:14;14.20;99.90
17879;DHT22;9065;51.050;13.758;2023-03-23T00:30:41;14.30;99.90
17879;DHT22;9065;51.050;13.758;2023-03-23T00:33:11;14.30;99.90
17879;DHT22;9065;51.050;13.758;2023-03-23T00:35:41;14.40;99.90
17879;DHT22;9065;51.050;13.758;2023-03-23T00:38:09;14.50;99.90
17879;DHT22;9065;51.050;13.758;2023-03-23T00:40:36;14.50;99.90
17879;DHT22;9065;51.050;13.758;2023-03-23T00:43:03;14.50;99.90
17879;DHT22;9065;51.050;13.758;2023-03-23T00:45:30;14.50;99.90
17879;DHT22;9065;51.050;13.758;2023-03-23T00:48:00;14.50;99.90
17879;DHT22;9065;51.050;13.758;2023-03-23T00:50:29;14.60;99.90
17879;DHT22;9065;51.050;13.758;2023-03-23T00:52:58;14.70;99.90
17879;DHT22;9065;51.050;13.758;2023-03-23T00:55:25;14.80;99.90
17879;DHT22;9065;51.050;13.758;2023-03-23T00:57:52;14.70;99.90
17879;DHT22;9065;51.050;13.758;2023-03-23T01:00:19;14.80;99.90
17879;DHT22;9065;51.050;13.758;2023-03-23T01:02:46;14.90;99.90
17879;DHT22;9065;51.050;13.758;2023-03-23T01:05:13;14.90;99.90
17879;DHT22;9065;51.050;13.758;2023-03-23T01:07:41;14.90;99.90
17879;DHT22;9065;51.050;13.758;2023-03-23T01:10:13;14.90;99.90
17879;DHT22;9065;51.050;13.758;2023-03-23T01:12:42;14.90;99.90
17879;DHT22;9065;51.050;13.758;2023-03-23T01:15:13;14.80;99.90
17879;DHT22;9065;51.050;13.758;2023-03-23T01:17:42;14.80;99.90
17879;DHT22;9065;51.050;13.758;2023-03-23T01:20:09;14.80;99.90
17879;DHT22;9065;51.050;13.758;2023-03-23T01:22:37;14.80;99.90
17879;DHT22;9065;51.050;13.758;2023-03-23T01:25:04;14.80;99.90
17879;DHT22;9065;51.050;13.758;2023-03-23T01:27:33;14.80;99.90
17879;DHT22;9065;51.050;13.758;2023-03-23T01:30:00;14.80;99.90
17879;DHT22;9065;51.050;13.758;2023-03-23T01:32:26;14.80;99.90
17879;DHT22;9065;51.050;13.758;2023-03-23T01:34:53;14.70;99.90
17879;DHT22;9065;51.050;13.758;2023-03-23T01:37:20;14.80;99.90
17879;DHT22;9065;51.050;13.758;2023-03-23T01:39:52;14.90;99.90
17879;DHT22;9065;51.050;13.758;2023-03-23T01:42:21;14.90;99.90
17879;DHT22;9065;51.050;13.758;2023-03-23T01:45:27;14.80;99.90
17879;DHT22;9065;51.050;13.758;2023-03-23T01:48:02;14.80;99.90
17879;DHT22;9065;51.050;13.758;2023-03-23T01:50:33;14.80;99.90
17879;DHT22;9065;51.050;13.758;2023-03-23T01:53:02;14.70;99.90
17879;DHT22;9065;51.050;13.758;2023-03-23T01:55:34;14.70;99.90
17879;DHT22;9065;51.050;13.758;2023-03-23T01:58:04;14.60;99.90
17879;DHT22;9065;51.050;13.758;2023-03-23T02:00:34;14.60;99.90
17879;DHT22;9065;51.050;13.758;2023-03-23T02:03:02;14.60;99.90
17879;DHT22;9065;51.050;13.758;2023-03-23T02:05:32;14.70;99.90
17879;DHT22;9065;51.050;13.758;2023-03-23T02:08:01;14.70;99.90
17879;DHT22;9065;51.050;13.758;2023-03-23T02:10:30;14.70;99.90
17879;DHT22;9065;51.050;13.758;2023-03-23T02:12:57;14.70;99.90
17879;DHT22;9065;51.050;13.758;2023-03-23T02:15:31;14.70;99.90
17879;DHT22;9065;51.050;13.758;2023-03-23T02:18:07;14.70;99.90
17879;DHT22;9065;51.050;13.758;2023-03-23T02:23:45;14.70;99.90
17879;DHT22;9065;51.050;13.758;2023-03-23T02:26:33;14.70;99.90
17879;DHT22;9065;51.050;13.758;2023-03-23T02:32:12;14.70;99.90
17879;DHT22;9065;51.050;13.758;2023-03-23T02:34:49;14.80;99.90
17879;DHT22;9065;51.050;13.758;2023-03-23T02:37:21;14.80;99.90
17879;DHT22;9065;51.050;13.758;2023-03-23T02:39:52;14.80;99.90
17879;DHT22;9065;51.050;13.758;2023-03-23T02:42:22;14.70;99.90
17879;DHT22;9065;51.050;13.758;2023-03-23T02:44:53;14.70;99.90
17879;DHT22;9065;51.050;13.758;2023-03-23T02:47:23;14.80;99.90
17879;DHT22;9065;51.050;13.758;2023-03-23T02:49:54;14.80;99.90
17879;DHT22;9065;51.050;13.758;2023-03-23T02:52:25;14.70;99.90
17879;DHT22;9065;51.050;13.758;2023-03-23T02:54:53;14.70;99.90
17879;DHT22;9065;51.050;13.758;2023-03-23T02:57:22;14.70;99.90
17879;DHT22;9065;51.050;13.758;2023-03-23T02:59:50;14.70;99.90
17879;DHT22;9065;51.050;13.758;2023-03-23T03:02:18;14.60;99.90
17879;DHT22;9065;51.050;13.758;2023-03-23T03:04:53;14.60;99.90
17879;DHT22;9065;51.050;13.758;2023-03-23T03:07:31;14.60;99.90
17879;DHT22;9065;51.050;13.758;2023-03-23T03:10:03;14.50;99.90
17879;DHT22;9065;51.050;13.758;2023-03-23T03:12:38;14.60;99.90
17879;DHT22;9065;51.050;13.758;2023-03-23T03:15:21;14.50;99.90
17879;DHT22;9065;51.050;13.758;2023-03-23T03:17:55;14.50;99.90
17879;DHT22;9065;51.050;13.758;2023-03-23T03:20:25;14.60;99.90
17879;DHT22;9065;51.050;13.758;2023-03-23T03:22:54;14.60;99.90
17879;DHT22;9065;51.050;13.758;2023-03-23T03:25:22;14.60;99.90
17879;DHT22;9065;51.050;13.758;2023-03-23T03:27:49;14.60;99.90
17879;DHT22;9065;51.050;13.758;2023-03-23T03:30:20;14.70;99.90
17879;DHT22;9065;51.050;13.758;2023-03-23T03:32:51;14.60;99.90
17879;DHT22;9065;51.050;13.758;2023-03-23T03:35:19;14.60;99.90
17879;DHT22;9065;51.050;13.758;2023-03-23T03:37:48;14.50;99.90
17879;DHT22;9065;51.050;13.758;2023-03-23T03:40:19;14.60;99.90
17879;DHT22;9065;51.050;13.758;2023-03-23T03:42:46;14.50;99.90
17879;DHT22;9065;51.050;13.758;2023-03-23T03:45:15;14.60;99.90
17879;DHT22;9065;51.050;13.758;2023-03-23T03:47:42;14.60;99.90
17879;DHT22;9065;51.050;13.758;2023-03-23T03:50:09;14.50;99.90
17879;DHT22;9065;51.050;13.758;2023-03-23T03:52:38;14.50;99.90
17879;DHT22;9065;51.050;13.758;2023-03-23T03:55:08;14.50;99.90
17879;DHT22;9065;51.050;13.758;2023-03-23T03:57:36;14.50;99.90
17879;DHT22;9065;51.050;13.758;2023-03-23T04:00:07;14.50;99.90
17879;DHT22;9065;51.050;13.758;2023-03-23T04:02:42;14.50;99.90
17879;DHT22;9065;51.050;13.758;2023-03-23T04:05:13;14.50;99.90
17879;DHT22;9065;51.050;13.758;2023-03-23T04:07:40;14.50;99.90
17879;DHT22;9065;51.050;13.758;2023-03-23T04:10:11;14.60;99.90
17879;DHT22;9065;51.050;13.758;2023-03-23T04:12:38;14.60;99.90
17879;DHT22;9065;51.050;13.758;2023-03-23T04:15:06;14.60;99.90
17879;DHT22;9065;51.050;13.758;2023-03-23T04:17:34;14.70;99.90
17879;DHT22;9065;51.050;13.758;2023-03-23T04:20:01;14.70;99.90
17879;DHT22;9065;51.050;13.758;2023-03-23T04:22:32;14.60;99.90
17879;DHT22;9065;51.050;13.758;2023-03-23T04:25:00;14.50;99.90
17879;DHT22;9065;51.050;13.758;2023-03-23T04:27:32;14.40;99.90
17879;DHT22;9065;51.050;13.758;2023-03-23T04:30:00;14.40;99.90
17879;DHT22;9065;51.050;13.758;2023-03-23T04:32:28;14.50;99.90
17879;DHT22;9065;51.050;13.758;2023-03-23T04:34:56;14.40;99.90
17879;DHT22;9065;51.050;13.758;2023-03-23T04:37:25;14.40;99.90
17879;DHT22;9065;51.050;13.758;2023-03-23T04:39:55;14.40;99.90
17879;DHT22;9065;51.050;13.758;2023-03-23T04:42:26;14.50;99.90
17879;DHT22;9065;51.050;13.758;2023-03-23T04:44:55;14.40;99.90
17879;DHT22;9065;51.050;13.758;2023-03-23T04:47:22;14.50;99.90
17879;DHT22;9065;51.050;13.758;2023-03-23T04:49:49;14.40;99.90
17879;DHT22;9065;51.050;13.758;2023-03-23T04:52:17;14.40;99.90
17879;DHT22;9065;51.050;13.758;2023-03-23T04:54:46;14.40;99.90
17879;DHT22;9065;51.050;13.758;2023-03-23T04:57:14;14.50;99.90
17879;DHT22;9065;51.050;13.758;2023-03-23T04:59:42;14.40;99.90
17879;DHT22;9065;51.050;13.758;2023-03-23T05:02:10;14.40;99.90
17879;DHT22;9065;51.050;13.758;2023-03-23T05:04:39;14.40;99.90
17879;DHT22;9065;51.050;13.758;2023-03-23T05:07:08;14.40;99.90
17879;DHT22;9065;51.050;13.758;2023-03-23T05:09:37;14.50;99.90
17879;DHT22;9065;51.050;13.758;2023-03-23T05:12:04;14.40;99.90
17879;DHT22;9065;51.050;13.758;2023-03-23T05:14:31;14.40;99.90
17879;DHT22;9065;51.050;13.758;2023-03-23T05:16:58;14.30;99.90
17879;DHT22;9065;51.050;13.758;2023-03-23T05:19:27;14.40;99.90
17879;DHT22;9065;51.050;13.758;2023-03-23T05:21:56;14.40;99.90
17879;DHT22;9065;51.050;13.758;2023-03-23T05:24:29;14.40;99.90
17879;DHT22;9065;51.050;13.758;2023-03-23T05:26:58;14.40;99.90
17879;DHT22;9065;51.050;13.758;2023-03-23T05:29:25;14.40;99.90
17879;DHT22;9065;51.050;13.758;2023-03-23T05:31:52;14.40;99.90
17879;DHT22;9065;51.050;13.758;2023-03-23T05:34:21;14.40;99.90
17879;DHT22;9065;51.050;13.758;2023-03-23T05:36:49;14.40;99.90
17879;DHT22;9065;51.050;13.758;2023-03-23T05:39:18;14.40;99.90
17879;DHT22;9065;51.050;13.758;2023-03-23T05:41:45;14.50;99.90
17879;DHT22;9065;51.050;13.758;2023-03-23T05:44:12;14.60;99.90
17879;DHT22;9065;51.050;13.758;2023-03-23T05:46:39;14.60;99.90
17879;DHT22;9065;51.050;13.758;2023-03-23T05:49:07;14.70;99.90
17879;DHT22;9065;51.050;13.758;2023-03-23T05:51:35;14.80;99.90
17879;DHT22;9065;51.050;13.758;2023-03-23T05:54:03;14.80;99.90
17879;DHT22;9065;51.050;13.758;2023-03-23T05:56:30;14.80;99.90
17879;DHT22;9065;51.050;13.758;2023-03-23T05:58:57;14.80;99.90
17879;DHT22;9065;51.050;13.758;2023-03-23T06:01:24;14.80;99.90
17879;DHT22;9065;51.050;13.758;2023-03-23T06:03:51;15.00;99.90
17879;DHT22;9065;51.050;13.758;2023-03-23T06:06:21;14.90;99.90
17879;DHT22;9065;51.050;13.758;2023-03-23T06:08:48;15.00;99.90
17879;DHT22;9065;51.050;13.758;2023-03-23T06:11:18;15.00;99.90
17879;DHT22;9065;51.050;13.758;2023-03-23T06:13:45;15.00;99.90
17879;DHT22;9065;51.050;13.758;2023-03-23T06:16:12;15.00;99.90
17879;DHT22;9065;51.050;13.758;2023-03-23T06:18:39;15.00;99.90
17879;DHT22;9065;51.050;13.758;2023-03-23T06:21:06;15.00;99.90
17879;DHT22;9065;51.050;13.758;2023-03-23T06:23:33;15.10;99.90
17879;DHT22;9065;51.050;13.758;2023-03-23T06:26:04;15.00;99.90
17879;DHT22;9065;51.050;13.758;2023-03-23T06:28:33;15.10;99.90
17879;DHT22;9065;51.050;13.758;2023-03-23T06:31:01;15.20;99.90
17879;DHT22;9065;51.050;13.758;2023-03-23T06:33:30;15.30;99.90
17879;DHT22;9065;51.050;13.758;2023-03-23T06:35:57;15.40;99.90
17879;DHT22;9065;51.050;13.758;2023-03-23T06:38:25;15.60;99.90
17879;DHT22;9065;51.050;13.758;2023-03-23T06:40:53;15.70;99.90
17879;DHT22;9065;51.050;13.758;2023-03-23T06:43:32;15.80;99.90
17879;DHT22;9065;51.050;13.758;2023-03-23T06:46:01;15.80;99.90
17879;DHT22;9065;51.050;13.758;2023-03-23T06:48:29;16.00;99.90
17879;DHT22;9065;51.050;13.758;2023-03-23T06:50:56;16.10;99.90
17879;DHT22;9065;51.050;13.758;2023-03-23T06:53:23;16.20;99.90
17879;DHT22;9065;51.050;13.758;2023-03-23T06:55:52;16.20;99.90
17879;DHT22;9065;51.050;13.758;2023-03-23T06:58:19;16.30;99.90
17879;DHT22;9065;51.050;13.758;2023-03-23T07:00:54;16.40;99.90
17879;DHT22;9065;51.050;13.758;2023-03-23T07:03:26;16.40;99.90
17879;DHT22;9065;51.050;13.758;2023-03-23T07:05:56;16.40;99.90
17879;DHT22;9065;51.050;13.758;2023-03-23T07:08:25;16.50;99.90
17879;DHT22;9065;51.050;13.758;2023-03-23T07:10:52;16.50;99.90
17879;DHT22;9065;51.050;13.758;2023-03-23T07:13:20;16.60;99.90
17879;DHT22;9065;51.050;13.758;2023-03-23T07:15:51;16.70;99.90
17879;DHT22;9065;51.050;13.758;2023-03-23T07:18:21;17.00;99.90
17879;DHT22;9065;51.050;13.758;2023-03-23T07:20:49;17.20;99.90
17879;DHT22;9065;51.050;13.758;2023-03-23T07:23:19;17.40;99.90
17879;DHT22;9065;51.050;13.758;2023-03-23T07:25:48;17.50;99.90
17879;DHT22;9065;51.050;13.758;2023-03-23T07:28:15;17.60;99.90
17879;DHT22;9065;51.050;13.758;2023-03-23T07:30:54;17.70;99.90
17879;DHT22;9065;51.050;13.758;2023-03-23T07:33:22;17.70;99.90
17879;DHT22;9065;51.050;13.758;2023-03-23T07:35:52;17.70;99.90
17879;DHT22;9065;51.050;13.758;2023-03-23T07:38:19;17.70;99.90
17879;DHT22;9065;51.050;13.758;2023-03-23T07:40:56;17.80;99.90
17879;DHT22;9065;51.050;13.758;2023-03-23T07:43:24;17.70;99.90
17879;DHT22;9065;51.050;13.758;2023-03-23T07:45:56;17.80;99.90
17879;DHT22;9065;51.050;13.758;2023-03-23T07:48:24;17.90;99.90
17879;DHT22;9065;51.050;13.758;2023-03-23T07:50:52;18.00;99.90
17879;DHT22;9065;51.050;13.758;2023-03-23T07:53:22;18.00;99.90
17879;DHT22;9065;51.050;13.758;2023-03-23T07:55:49;17.90;99.90
17879;DHT22;9065;51.050;13.758;2023-03-23T07:58:17;17.80;99.90
17879;DHT22;9065;51.050;13.758;2023-03-23T08:00:46;17.70;99.90
17879;DHT22;9065;51.050;13.758;2023-03-23T08:03:17;17.70;99.90
17879;DHT22;9065;51.050;13.758;2023-03-23T08:05:46;17.80;99.90
17879;DHT22;9065;51.050;13.758;2023-03-23T08:08:13;17.80;99.90
17879;DHT22;9065;51.050;13.758;2023-03-23T08:10:44;17.70;99.90
17879;DHT22;9065;51.050;13.758;2023-03-23T08:13:11;17.80;99.90
17879;DHT22;9065;51.050;13.758;2023-03-23T08:15:50;17.70;99.90
17879;DHT22;9065;51.050;13.758;2023-03-23T08:18:18;17.70;99.90
17879;DHT22;9065;51.050;13.758;2023-03-23T08:20:46;17.70;99.90
17879;DHT22;9065;51.050;13.758;2023-03-23T08:23:14;17.60;99.90
17879;DHT22;9065;51.050;13.758;2023-03-23T08:25:42;17.50;99.90
17879;DHT22;9065;51.050;13.758;2023-03-23T08:28:09;17.60;99.90
17879;DHT22;9065;51.050;13.758;2023-03-23T08:30:38;17.60;99.90
17879;DHT22;9065;51.050;13.758;2023-03-23T08:33:05;17.50;99.90
17879;DHT22;9065;51.050;13.758;2023-03-23T08:35:33;17.40;99.90
17879;DHT22;9065;51.050;13.758;2023-03-23T08:38:12;17.40;99.90
17879;DHT22;9065;51.050;13.758;2023-03-23T08:40:42;17.40;99.90
17879;DHT22;9065;51.050;13.758;2023-03-23T08:43:24;17.40;99.90
17879;DHT22;9065;51.050;13.758;2023-03-23T08:45:54;17.40;99.90
17879;DHT22;9065;51.050;13.758;2023-03-23T08:48:25;17.40;99.90
17879;DHT22;9065;51.050;13.758;2023-03-23T08:50:52;17.30;99.90
17879;DHT22;9065;51.050;13.758;2023-03-23T08:53:23;17.40;99.90
17879;DHT22;9065;51.050;13.758;2023-03-23T08:55:49;17.40;99.90
17879;DHT22;9065;51.050;13.758;2023-03-23T08:58:17;17.30;99.90
17879;DHT22;9065;51.050;13.758;2023-03-23T09:00:44;17.30;99.90
17879;DHT22;9065;51.050;13.758;2023-03-23T09:03:12;17.30;99.90
17879;DHT22;9065;51.050;13.758;2023-03-23T09:05:39;17.10;99.90
17879;DHT22;9065;51.050;13.758;2023-03-23T09:08:12;17.10;99.90
17879;DHT22;9065;51.050;13.758;2023-03-23T09:10:44;17.00;99.90
17879;DHT22;9065;51.050;13.758;2023-03-23T09:13:11;17.10;99.90
17879;DHT22;9065;51.050;13.758;2023-03-23T09:15:39;17.30;99.90
17879;DHT22;9065;51.050;13.758;2023-03-23T09:18:06;17.40;99.90
17879;DHT22;9065;51.050;13.758;2023-03-23T09:20:33;17.50;99.90
17879;DHT22;9065;51.050;13.758;2023-03-23T09:23:02;17.50;99.90
17879;DHT22;9065;51.050;13.758;2023-03-23T09:25:31;17.60;99.90
17879;DHT22;9065;51.050;13.758;2023-03-23T09:27:59;17.50;99.90
17879;DHT22;9065;51.050;13.758;2023-03-23T09:30:31;17.60;99.90
17879;DHT22;9065;51.050;13.758;2023-03-23T09:33:03;17.50;99.90
17879;DHT22;9065;51.050;13.758;2023-03-23T09:35:36;17.40;99.90
17879;DHT22;9065;51.050;13.758;2023-03-23T09:38:05;17.30;99.90
17879;DHT22;9065;51.050;13.758;2023-03-23T09:40:43;17.30;99.90
17879;DHT22;9065;51.050;13.758;2023-03-23T09:43:34;17.40;99.90
17879;DHT22;9065;51.050;13.758;2023-03-23T09:48:59;17.40;99.90
17879;DHT22;9065;51.050;13.758;2023-03-23T09:51:36;17.30;99.90
17879;DHT22;9065;51.050;13.758;2023-03-23T09:54:08;17.30;99.90
17879;DHT22;9065;51.050;13.758;2023-03-23T09:56:36;17.30;99.90
17879;DHT22;9065;51.050;13.758;2023-03-23T09:59:10;17.30;99.90
17879;DHT22;9065;51.050;13.758;2023-03-23T10:01:42;17.20;99.90
17879;DHT22;9065;51.050;13.758;2023-03-23T10:04:18;17.20;99.90
17879;DHT22;9065;51.050;13.758;2023-03-23T10:06:49;17.20;99.90
17879;DHT22;9065;51.050;13.758;2023-03-23T10:09:17;17.30;99.90
17879;DHT22;9065;51.050;13.758;2023-03-23T10:11:54;17.40;99.90
17879;DHT22;9065;51.050;13.758;2023-03-23T10:14:46;17.50;99.90
17879;DHT22;9065;51.050;13.758;2023-03-23T10:17:24;17.50;99.90
17879;DHT22;9065;51.050;13.758;2023-03-23T10:19:59;17.40;99.90
17879;DHT22;9065;51.050;13.758;2023-03-23T10:22:33;17.50;99.90
17879;DHT22;9065;51.050;13.758;2023-03-23T10:25:15;17.60;99.90
17879;DHT22;9065;51.050;13.758;2023-03-23T10:27:50;17.70;99.90
17879;DHT22;9065;51.050;13.758;2023-03-23T10:30:24;17.80;99.90
17879;DHT22;9065;51.050;13.758;2023-03-23T10:33:00;17.90;99.90
17879;DHT22;9065;51.050;13.758;2023-03-23T10:35:31;18.00;99.90
17879;DHT22;9065;51.050;13.758;2023-03-23T10:38:05;18.00;99.90
17879;DHT22;9065;51.050;13.758;2023-03-23T10:40:34;18.00;99.90
17879;DHT22;9065;51.050;13.758;2023-03-23T10:43:02;18.00;99.90
17879;DHT22;9065;51.050;13.758;2023-03-23T10:45:31;18.10;99.90
17879;DHT22;9065;51.050;13.758;2023-03-23T10:48:08;18.30;99.90
17879;DHT22;9065;51.050;13.758;2023-03-23T10:50:37;18.40;99.90
17879;DHT22;9065;51.050;13.758;2023-03-23T10:53:13;18.60;99.90
17879;DHT22;9065;51.050;13.758;2023-03-23T10:55:45;18.50;99.90
17879;DHT22;9065;51.050;13.758;2023-03-23T10:58:23;18.50;99.90
17879;DHT22;9065;51.050;13.758;2023-03-23T11:00:51;18.40;99.90
17879;DHT22;9065;51.050;13.758;2023-03-23T11:03:41;18.70;99.90
17879;DHT22;9065;51.050;13.758;2023-03-23T11:06:10;18.80;99.90
17879;DHT22;9065;51.050;13.758;2023-03-23T11:08:52;19.00;99.90
17879;DHT22;9065;51.050;13.758;2023-03-23T11:11:29;19.00;99.90
17879;DHT22;9065;51.050;13.758;2023-03-23T11:13:59;19.00;99.90
17879;DHT22;9065;51.050;13.758;2023-03-23T11:16:34;19.00;99.90
17879;DHT22;9065;51.050;13.758;2023-03-23T11:19:12;18.90;99.90
17879;DHT22;9065;51.050;13.758;2023-03-23T11:21:47;18.70;99.90
17879;DHT22;9065;51.050;13.758;2023-03-23T11:24:17;18.60;99.90
17879;DHT22;9065;51.050;13.758;2023-03-23T11:26:47;18.40;99.90
17879;DHT22;9065;51.050;13.758;2023-03-23T11:29:17;18.50;99.90
17879;DHT22;9065;51.050;13.758;2023-03-23T11:31:47;18.40;99.90
17879;DHT22;9065;51.050;13.758;2023-03-23T11:34:19;18.30;99.90
17879;DHT22;9065;51.050;13.758;2023-03-23T11:36:50;18.30;99.90
17879;DHT22;9065;51.050;13.758;2023-03-23T11:39:24;18.20;99.90
17879;DHT22;9065;51.050;13.758;2023-03-23T11:41:52;18.10;99.90
17879;DHT22;9065;51.050;13.758;2023-03-23T11:44:24;18.10;99.90
17879;DHT22;9065;51.050;13.758;2023-03-23T11:47:04;18.00;99.90
17879;DHT22;9065;51.050;13.758;2023-03-23T11:49:45;18.00;99.90
17879;DHT22;9065;51.050;13.758;2023-03-23T11:52:20;18.00;99.90
17879;DHT22;9065;51.050;13.758;2023-03-23T11:54:56;17.90;99.90
17879;DHT22;9065;51.050;13.758;2023-03-23T11:57:24;17.90;99.90
17879;DHT22;9065;51.050;13.758;2023-03-23T11:59:51;17.90;99.90
17879;DHT22;9065;51.050;13.758;2023-03-23T12:05:42;17.90;99.90
17879;DHT22;9065;51.050;13.758;2023-03-23T12:08:30;17.90;99.90
17879;DHT22;9065;51.050;13.758;2023-03-23T12:11:15;17.80;99.90
17879;DHT22;9065;51.050;13.758;2023-03-23T12:13:58;17.80;99.90
17879;DHT22;9065;51.050;13.758;2023-03-23T12:16:35;17.70;99.90
17879;DHT22;9065;51.050;13.758;2023-03-23T12:19:12;17.80;99.90
17879;DHT22;9065;51.050;13.758;2023-03-23T12:21:52;17.80;99.90
17879;DHT22;9065;51.050;13.758;2023-03-23T12:24:31;17.90;99.90
17879;DHT22;9065;51.050;13.758;2023-03-23T12:27:17;18.00;99.90
17879;DHT22;9065;51.050;13.758;2023-03-23T12:30:11;18.00;99.90
17879;DHT22;9065;51.050;13.758;2023-03-23T12:32:49;18.10;99.90
17879;DHT22;9065;51.050;13.758;2023-03-23T12:35:34;18.30;99.90
17879;DHT22;9065;51.050;13.758;2023-03-23T12:38:15;18.30;99.90
17879;DHT22;9065;51.050;13.758;2023-03-23T12:41:06;18.20;99.90
17879;DHT22;9065;51.050;13.758;2023-03-23T12:43:40;18.30;99.90
17879;DHT22;9065;51.050;13.758;2023-03-23T12:49:02;18.50;99.90
17879;DHT22;9065;51.050;13.758;2023-03-23T12:51:42;18.40;99.90
17879;DHT22;9065;51.050;13.758;2023-03-23T12:54:16;18.20;99.90
17879;DHT22;9065;51.050;13.758;2023-03-23T12:56:50;18.20;99.90
17879;DHT22;9065;51.050;13.758;2023-03-23T12:59:22;18.20;99.90
17879;DHT22;9065;51.050;13.758;2023-03-23T13:01:59;18.20;99.90
17879;DHT22;9065;51.050;13.758;2023-03-23T13:04:32;18.00;99.90
17879;DHT22;9065;51.050;13.758;2023-03-23T13:07:02;17.90;99.90
17879;DHT22;9065;51.050;13.758;2023-03-23T13:09:36;18.00;99.90
17879;DHT22;9065;51.050;13.758;2023-03-23T13:12:09;18.10;99.90
17879;DHT22;9065;51.050;13.758;2023-03-23T13:14:43;18.20;99.90
17879;DHT22;9065;51.050;13.758;2023-03-23T13:17:21;18.20;99.90
17879;DHT22;9065;51.050;13.758;2023-03-23T13:20:04;18.20;99.90
17879;DHT22;9065;51.050;13.758;2023-03-23T13:22:41;18.10;99.90
17879;DHT22;9065;51.050;13.758;2023-03-23T13:25:15;18.10;99.90
17879;DHT22;9065;51.050;13.758;2023-03-23T13:27:44;18.00;99.90
17879;DHT22;9065;51.050;13.758;2023-03-23T13:30:24;18.00;99.90
17879;DHT22;9065;51.050;13.758;2023-03-23T13:33:04;18.00;99.90
17879;DHT22;9065;51.050;13.758;2023-03-23T13:35:37;18.20;99.90
17879;DHT22;9065;51.050;13.758;2023-03-23T13:38:19;18.30;99.90
17879;DHT22;9065;51.050;13.758;2023-03-23T13:40:47;18.30;99.90
17879;DHT22;9065;51.050;13.758;2023-03-23T13:43:25;18.30;99.90
17879;DHT22;9065;51.050;13.758;2023-03-23T13:45:53;18.20;99.90
17879;DHT22;9065;51.050;13.758;2023-03-23T13:48:24;18.20;99.90
17879;DHT22;9065;51.050;13.758;2023-03-23T13:50:55;18.40;99.90
17879;DHT22;9065;51.050;13.758;2023-03-23T13:53:26;18.50;99.90
17879;DHT22;9065;51.050;13.758;2023-03-23T13:56:07;18.70;99.90
17879;DHT22;9065;51.050;13.758;2023-03-23T13:58:45;18.80;99.90
17879;DHT22;9065;51.050;13.758;2023-03-23T14:01:15;18.90;99.90
17879;DHT22;9065;51.050;13.758;2023-03-23T14:03:48;19.10;99.90
17879;DHT22;9065;51.050;13.758;2023-03-23T14:06:19;19.50;99.90
17879;DHT22;9065;51.050;13.758;2023-03-23T14:08:51;19.70;99.90
17879;DHT22;9065;51.050;13.758;2023-03-23T14:11:22;20.00;99.90
17879;DHT22;9065;51.050;13.758;2023-03-23T14:14:03;20.00;99.90
17879;DHT22;9065;51.050;13.758;2023-03-23T14:16:36;20.00;99.90
17879;DHT22;9065;51.050;13.758;2023-03-23T14:19:13;20.00;99.90
17879;DHT22;9065;51.050;13.758;2023-03-23T14:21:48;20.10;99.90
17879;DHT22;9065;51.050;13.758;2023-03-23T14:24:20;20.00;99.90
17879;DHT22;9065;51.050;13.758;2023-03-23T14:26:48;19.80;99.90
17879;DHT22;9065;51.050;13.758;2023-03-23T14:29:18;19.70;99.90
17879;DHT22;9065;51.050;13.758;2023-03-23T14:31:52;19.60;99.90
17879;DHT22;9065;51.050;13.758;2023-03-23T14:34:22;19.40;99.90
17879;DHT22;9065;51.050;13.758;2023-03-23T14:36:50;19.60;99.90
17879;DHT22;9065;51.050;13.758;2023-03-23T14:39:23;19.60;99.90
17879;DHT22;9065;51.050;13.758;2023-03-23T14:41:53;19.50;99.90
17879;DHT22;9065;51.050;13.758;2023-03-23T14:44:24;19.40;99.90
17879;DHT22;9065;51.050;13.758;2023-03-23T14:46:53;19.10;99.90
17879;DHT22;9065;51.050;13.758;2023-03-23T14:49:29;18.90;99.90
17879;DHT22;9065;51.050;13.758;2023-03-23T14:51:56;18.70;99.90
17879;DHT22;9065;51.050;13.758;2023-03-23T14:54:27;18.60;99.90
17879;DHT22;9065;51.050;13.758;2023-03-23T14:56:54;18.50;99.90
17879;DHT22;9065;51.050;13.758;2023-03-23T14:59:21;18.40;99.90
17879;DHT22;9065;51.050;13.758;2023-03-23T15:01:50;18.40;99.90
17879;DHT22;9065;51.050;13.758;2023-03-23T15:04:20;18.40;99.90
17879;DHT22;9065;51.050;13.758;2023-03-23T15:06:49;18.30;99.90
17879;DHT22;9065;51.050;13.758;2023-03-23T15:09:18;18.30;99.90
17879;DHT22;9065;51.050;13.758;2023-03-23T15:11:54;18.20;99.90
17879;DHT22;9065;51.050;13.758;2023-03-23T15:14:31;18.30;99.90
17879;DHT22;9065;51.050;13.758;2023-03-23T15:16:59;18.30;99.90
17879;DHT22;9065;51.050;13.758;2023-03-23T15:19:28;18.20;99.90
17879;DHT22;9065;51.050;13.758;2023-03-23T15:22:04;18.10;99.90
17879;DHT22;9065;51.050;13.758;2023-03-23T15:24:36;18.10;99.90
17879;DHT22;9065;51.050;13.758;2023-03-23T15:27:13;18.10;99.90
17879;DHT22;9065;51.050;13.758;2023-03-23T15:29:48;18.00;99.90
17879;DHT22;9065;51.050;13.758;2023-03-23T15:32:27;18.10;99.90
17879;DHT22;9065;51.050;13.758;2023-03-23T15:34:57;18.00;99.90
17879;DHT22;9065;51.050;13.758;2023-03-23T15:37:29;18.10;99.90
17879;DHT22;9065;51.050;13.758;2023-03-23T15:39:58;18.00;99.90
17879;DHT22;9065;51.050;13.758;2023-03-23T15:42:29;17.90;99.90
17879;DHT22;9065;51.050;13.758;2023-03-23T15:44:58;17.90;99.90
17879;DHT22;9065;51.050;13.758;2023-03-23T15:47:37;17.80;99.90
17879;DHT22;9065;51.050;13.758;2023-03-23T15:50:11;17.80;99.90
17879;DHT22;9065;51.050;13.758;2023-03-23T15:52:38;17.70;99.90
17879;DHT22;9065;51.050;13.758;2023-03-23T15:55:19;17.70;99.90
17879;DHT22;9065;51.050;13.758;2023-03-23T15:57:49;17.60;99.90
17879;DHT22;9065;51.050;13.758;2023-03-23T16:00:18;17.60;99.90
17879;DHT22;9065;51.050;13.758;2023-03-23T16:02:45;17.50;99.90
17879;DHT22;9065;51.050;13.758;2023-03-23T16:05:13;17.50;99.90
17879;DHT22;9065;51.050;13.758;2023-03-23T16:07:40;17.50;99.90
17879;DHT22;9065;51.050;13.758;2023-03-23T16:10:14;17.50;99.90